Time;durP1;ratioP1;P1;durP2;ratioP2;P2;SDS_P1;SDS_P2;PMS_P1;PMS_P2;Temp;Humidity;BMP_temperature;BMP_pressure;BME280_temperature;BME280_humidity;BME280_pressure;Samples;Min_cycle;Max_cycle;Signal;HPM_P1;HPM_P2
2022/07/06 00:01:14;;;;;;;9.20;2.83;;;;;;;22.10;42.26;101165.28;4172389;28;20116;-67
2022/07/06 00:03:18;;;;;;;6.95;2.47;;;;;;;22.16;42.22;101159.81;4174485;28;20048;-67
2022/07/06 00:05:21;;;;;;;;;;;;;;;22.01;42.30;101160.19;4177597;28;20122;-67
2022/07/06 00:07:24;;;;;;;12.82;3.80;;;;;;;22.04;42.75;101174.22;4179150;28;20304;-68
2022/07/06 00:09:27;;;;;;;7.38;3.22;;;;;;;22.23;42.13;101164.06;4180825;28;20064;-68
2022/07/06 00:11:30;;;;;;;5.55;2.95;;;;;;;21.99;42.64;101167.28;4180263;28;20123;-68
2022/07/06 00:13:33;;;;;;;3.53;2.38;;;;;;;21.88;43.16;101178.97;4169344;28;20037;-68
2022/07/06 00:15:36;;;;;;;5.80;2.90;;;;;;;21.90;43.25;101177.19;4170078;28;20047;-68
2022/07/06 00:17:39;;;;;;;5.97;2.90;;;;;;;22.06;43.03;101179.47;4181617;28;20123;-69
2022/07/06 00:19:43;;;;;;;8.00;2.83;;;;;;;22.05;42.92;101180.38;4178802;28;20140;-68
2022/07/06 00:21:46;;;;;;;4.45;2.25;;;;;;;21.93;43.42;101186.81;4161604;28;20061;-68
2022/07/06 00:23:51;;;;;;;6.10;2.88;;;;;;;21.88;43.58;101192.22;4181253;28;20053;-68
2022/07/06 00:25:54;;;;;;;5.47;2.60;;;;;;;21.89;43.52;101187.78;4181270;28;20132;-68
2022/07/06 00:27:57;;;;;;;6.03;3.40;;;;;;;21.96;43.42;101192.03;4182450;28;20037;-68
2022/07/06 00:30:00;;;;;;;7.47;3.08;;;;;;;21.97;43.36;101184.06;4175176;28;20045;-68
2022/07/06 00:32:03;;;;;;;7.22;3.90;;;;;;;21.97;43.30;101191.13;4158960;28;20591;-68
2022/07/06 00:34:06;;;;;;;8.00;4.15;;;;;;;21.90;43.42;101189.53;4162440;28;20523;-68
2022/07/06 00:36:11;;;;;;;9.75;3.58;;;;;;;21.88;43.51;101194.84;4162981;28;20130;-69
2022/07/06 00:38:14;;;;;;;5.60;3.40;;;;;;;21.66;43.76;101190.91;4182505;28;20037;-68
2022/07/06 00:40:17;;;;;;;8.38;4.00;;;;;;;21.62;44.06;101198.03;4162998;28;20041;-68
2022/07/06 00:42:19;;;;;;;8.77;4.03;;;;;;;21.56;44.40;101193.72;4164205;28;20139;-67
2022/07/06 00:44:22;;;;;;;10.05;3.88;;;;;;;21.54;44.34;101206.13;4155462;28;20042;-68
2022/07/06 00:46:29;;;;;;;12.52;3.70;;;;;;;21.49;44.46;101200.00;4147332;28;20038;-68
2022/07/06 00:48:32;;;;;;;10.05;4.00;;;;;;;21.33;44.93;101198.56;4173878;28;20146;-68
2022/07/06 00:50:35;;;;;;;11.70;3.97;;;;;;;21.25;45.00;101204.00;4161809;28;20044;-67
2022/07/06 00:52:39;;;;;;;9.63;4.38;;;;;;;21.23;44.86;101205.78;4163972;28;20037;-68
2022/07/06 00:54:44;;;;;;;7.88;4.07;;;;;;;21.12;45.50;101206.00;4152701;28;20037;-69
2022/07/06 00:56:46;;;;;;;10.43;4.43;;;;;;;21.12;45.60;101208.63;4159280;28;20072;-69
2022/07/06 00:58:49;;;;;;;5.35;3.45;;;;;;;21.12;45.71;101197.19;4160633;28;20580;-69
2022/07/06 01:00:52;;;;;;;5.30;2.92;;;;;;;21.00;46.12;101206.22;4150691;28;20061;-69
2022/07/06 01:02:56;;;;;;;5.93;2.78;;;;;;;21.06;46.23;101200.81;4177828;28;20049;-68
2022/07/06 01:04:59;;;;;;;7.38;2.83;;;;;;;21.25;45.84;101204.00;4156903;28;20321;-68
2022/07/06 01:07:02;;;;;;;8.25;3.22;;;;;;;21.23;45.85;101205.78;4163283;28;20041;-68
2022/07/06 01:09:07;;;;;;;4.97;2.17;;;;;;;21.26;45.80;101203.97;4172919;28;20563;-68
2022/07/06 01:11:12;;;;;;;2.65;2.05;;;;;;;21.30;45.89;101209.22;4150191;28;20042;-68
2022/07/06 01:13:15;;;;;;;4.70;2.35;;;;;;;21.41;45.60;101207.25;4160873;28;20056;-68
2022/07/06 01:15:20;;;;;;;3.72;2.03;;;;;;;21.33;45.89;101201.22;4151779;28;20146;-68
2022/07/06 01:17:24;;;;;;;5.15;2.42;;;;;;;21.40;45.41;101206.34;4162255;28;20045;-68
2022/07/06 01:19:27;;;;;;;6.88;2.40;;;;;;;21.31;45.57;101203.88;4156074;28;20038;-68
2022/07/06 01:21:31;;;;;;;10.38;3.45;;;;;;;21.40;45.23;101203.69;4157729;28;20048;-68
2022/07/06 01:23:40;;;;;;;6.05;3.40;;;;;;;21.48;45.21;101197.41;4143773;28;20429;-69
2022/07/06 01:25:43;;;;;;;9.13;3.22;;;;;;;21.29;45.54;101203.06;4172247;28;20124;-68
2022/07/06 01:27:49;;;;;;;9.05;3.72;;;;;;;21.20;45.79;101203.19;4163676;28;20037;-68
2022/07/06 01:29:52;;;;;;;12.13;3.72;;;;;;;21.24;45.48;101199.59;4150554;28;20041;-68
2022/07/06 01:31:55;;;;;;;8.73;3.20;;;;;;;21.01;46.08;101203.56;4156255;28;20037;-68
2022/07/06 01:33:59;;;;;;;9.60;4.13;;;;;;;21.02;46.07;101199.97;4171287;28;20042;-67
2022/07/06 01:36:02;;;;;;;7.05;3.42;;;;;;;20.99;46.15;101196.53;4161074;28;20037;-68
2022/07/06 01:38:06;;;;;;;5.25;3.20;;;;;;;20.86;46.62;101191.44;4181238;28;20064;-68
2022/07/06 01:40:11;;;;;;;10.23;4.05;;;;;;;20.91;46.64;101205.47;4179102;28;20156;-68
2022/07/06 01:42:14;;;;;;;;;;;;;;;20.76;46.73;101195.13;4148246;28;20386;-68
2022/07/06 01:44:17;;;;;;;8.65;3.85;;;;;;;20.72;46.52;101198.72;4162575;28;19925;-67
2022/07/06 01:46:20;;;;;;;9.98;3.60;;;;;;;20.74;46.57;101194.31;4158729;28;20037;-67
2022/07/06 01:48:23;;;;;;;6.93;3.50;;;;;;;20.60;46.90;101196.25;4156434;28;20069;-67
2022/07/06 01:50:27;;;;;;;13.70;3.40;;;;;;;20.47;46.79;101193.81;4168623;28;20103;-68
2022/07/06 01:52:29;;;;;;;6.65;3.13;;;;;;;20.51;47.10;101192.00;4162798;28;20030;-70
2022/07/06 01:54:34;;;;;;;7.10;3.10;;;;;;;20.43;46.82;101189.47;4176317;28;20496;-68
2022/07/06 01:56:37;;;;;;;5.30;2.85;;;;;;;20.33;47.69;101190.50;4156945;28;20121;-69
2022/07/06 01:58:41;;;;;;;7.68;4.25;;;;;;;20.37;47.71;101192.19;4154834;28;20095;-68
2022/07/06 02:00:45;;;;;;;5.53;3.20;;;;;;;20.42;47.65;101184.22;4179109;28;20041;-69
2022/07/06 02:02:48;;;;;;;9.73;3.43;;;;;;;20.43;47.25;101192.13;4162929;28;20323;-68
2022/07/06 02:04:52;;;;;;;3.75;2.25;;;;;;;20.38;47.59;101193.94;4162477;28;20300;-69
2022/07/06 02:06:56;;;;;;;5.95;2.42;;;;;;;20.28;48.36;101195.84;4163273;28;20029;-69
2022/07/06 02:08:59;;;;;;;5.05;2.38;;;;;;;20.45;47.47;101194.72;4146047;28;20226;-68
2022/07/06 02:11:04;;;;;;;2.80;2.03;;;;;;;20.54;47.37;101200.72;4173322;28;20046;-69
2022/07/06 02:13:09;;;;;;;5.75;2.35;;;;;;;20.40;48.50;101197.44;4160257;28;20068;-69
2022/07/06 02:15:12;;;;;;;3.88;2.35;;;;;;;20.51;47.18;101199.91;4160388;28;20497;-69
2022/07/06 02:17:15;;;;;;;5.13;1.60;;;;;;;20.49;47.88;101194.66;4147013;28;20128;-69
2022/07/06 02:19:18;;;;;;;4.00;1.92;;;;;;;20.56;47.71;101191.03;4163059;28;20519;-68
2022/07/06 02:21:21;;;;;;;3.83;1.90;;;;;;;20.55;47.42;101191.03;4160346;28;20040;-69
2022/07/06 02:23:25;;;;;;;9.02;2.47;;;;;;;20.67;46.68;101190.00;4155706;28;20069;-68
2022/07/06 02:25:29;;;;;;;4.18;2.50;;;;;;;20.59;46.98;101198.03;4159797;28;20129;-68
2022/07/06 02:27:33;;;;;;;5.50;2.40;;;;;;;20.53;47.04;101204.28;4159692;28;20041;-68
2022/07/06 02:29:39;;;;;;;3.22;1.55;;;;;;;20.48;48.25;101207.88;4155244;28;20107;-68
2022/07/06 02:31:43;;;;;;;5.93;2.20;;;;;;;20.65;46.38;101208.50;4160452;28;20068;-69
2022/07/06 02:33:46;;;;;;;3.37;1.83;;;;;;;20.59;47.37;101208.59;4161918;28;20155;-68
2022/07/06 02:35:50;;;;;;;4.35;1.85;;;;;;;20.67;46.65;101206.72;4162853;28;20083;-68
2022/07/06 02:37:53;;;;;;;5.25;2.13;;;;;;;20.72;46.91;101201.38;4139814;28;20076;-68
2022/07/06 02:39:55;;;;;;;4.43;1.65;;;;;;;20.72;46.71;101209.28;4159917;28;20090;-68
2022/07/06 02:41:58;;;;;;;5.10;1.60;;;;;;;20.71;47.12;101204.94;4159197;28;20033;-69
2022/07/06 02:44:03;;;;;;;3.08;1.50;;;;;;;20.70;46.59;101211.97;4153911;28;20085;-69
2022/07/06 02:46:06;;;;;;;5.05;2.10;;;;;;;20.72;46.38;101210.19;4169312;28;20048;-70
2022/07/06 02:48:11;;;;;;;;;;;;;;;20.52;47.20;101210.44;4144255;28;20038;-69
2022/07/06 02:50:14;;;;;;;3.40;1.63;;;;;;;20.60;46.38;101210.31;4180059;28;20438;-69
2022/07/06 02:52:17;;;;;;;3.83;1.58;;;;;;;20.59;47.47;101219.16;4160710;28;20414;-70
2022/07/06 02:54:20;;;;;;;5.45;1.75;;;;;;;20.68;46.30;101210.25;4154856;28;20112;-69
2022/07/06 02:56:23;;;;;;;8.48;2.33;;;;;;;20.66;46.12;101217.28;4161485;28;20525;-69
2022/07/06 02:58:26;;;;;;;3.88;1.90;;;;;;;20.63;46.10;101222.63;4158595;28;20539;-69
2022/07/06 03:00:30;;;;;;;5.75;2.10;;;;;;;20.50;46.11;101222.81;4144559;28;20038;-69
2022/07/06 03:02:33;;;;;;;;;;;;;;;20.32;46.04;101226.59;4161019;28;20140;-69
2022/07/06 03:04:36;;;;;;;7.57;3.25;;;;;;;20.34;45.69;101230.09;4154310;28;19925;-69
2022/07/06 03:06:39;;;;;;;4.82;2.00;;;;;;;20.22;45.85;101236.41;4158538;28;20084;-68
2022/07/06 03:08:42;;;;;;;6.28;2.80;;;;;;;20.08;46.36;101233.09;4174219;28;20041;-68
2022/07/06 03:10:45;;;;;;;5.82;2.42;;;;;;;19.87;46.64;101237.75;4170402;28;20033;-68
2022/07/06 03:12:48;;;;;;;7.45;2.53;;;;;;;19.88;46.61;101238.59;4168985;28;20133;-69
2022/07/06 03:14:51;;;;;;;6.45;2.67;;;;;;;19.73;47.01;101242.25;4161395;28;20044;-69
2022/07/06 03:16:55;;;;;;;5.22;2.30;;;;;;;19.73;46.73;101242.25;4161713;28;20041;-69
2022/07/06 03:18:59;;;;;;;5.00;2.75;;;;;;;19.67;46.95;101237.94;4161736;28;20037;-69
2022/07/06 03:21:03;;;;;;;4.53;2.20;;;;;;;19.53;47.25;101240.69;4155432;28;20401;-69
2022/07/06 03:23:06;;;;;;;;;;;;;;;19.40;47.39;101238.22;4171111;28;20485;-69
2022/07/06 03:25:10;;;;;;;6.10;2.60;;;;;;;19.48;47.33;101247.78;4176960;28;19920;-69
2022/07/06 03:27:15;;;;;;;6.07;2.40;;;;;;;19.40;47.81;101249.63;4177785;28;20067;-69
2022/07/06 03:29:20;;;;;;;7.30;2.35;;;;;;;19.49;47.61;101246.03;4160834;28;20049;-69
2022/07/06 03:31:25;;;;;;;5.90;2.72;;;;;;;19.46;47.47;101246.06;4162301;28;20069;-69
2022/07/06 03:33:30;;;;;;;5.38;2.63;;;;;;;19.41;47.62;101254.03;4174707;28;20033;-69
2022/07/06 03:35:33;;;;;;;5.95;2.97;;;;;;;19.43;47.83;101256.63;4172817;28;20041;-68
2022/07/06 03:37:38;;;;;;;8.55;3.15;;;;;;;19.30;47.67;101255.88;4150555;28;20485;-70
2022/07/06 03:39:41;;;;;;;5.85;2.65;;;;;;;19.28;48.26;101260.31;4172934;28;20037;-69
2022/07/06 03:41:46;;;;;;;7.10;2.60;;;;;;;19.27;47.91;101248.84;4156057;28;20504;-69
2022/07/06 03:43:49;;;;;;;5.82;2.35;;;;;;;19.24;48.28;101251.53;4161222;28;20492;-69
2022/07/06 03:45:52;;;;;;;6.70;2.47;;;;;;;19.33;48.39;101253.22;4156614;28;20037;-69
2022/07/06 03:47:56;;;;;;;5.75;2.17;;;;;;;19.27;48.09;101248.00;4157992;28;20033;-69
2022/07/06 03:50:01;;;;;;;7.47;2.10;;;;;;;19.26;48.76;101248.88;4178629;28;20033;-70
2022/07/06 03:52:04;;;;;;;;;;;;;;;19.19;49.50;101254.22;4154854;28;20128;-70
2022/07/06 03:54:15;;;;;;;6.63;2.00;;;;;;;19.33;48.84;101258.47;4161645;28;19928;-70
2022/07/06 03:56:30;;;;;;;3.08;1.80;;;;;;;19.54;48.67;101260.06;4163781;28;20089;-69
2022/07/06 03:58:43;;;;;;;;;;;;;;;19.48;49.74;101263.63;4170966;28;20489;-69
2022/07/06 04:00:47;;;;;;;4.13;1.92;;;;;;;19.63;48.11;101257.31;4172393;28;19946;-62
2022/07/06 04:02:52;;;;;;;12.35;1.85;;;;;;;19.74;47.68;101265.09;4160730;28;20391;-62
2022/07/06 04:05:00;;;;;;;6.32;1.80;;;;;;;19.89;47.06;101256.19;4177862;28;20041;-62
2022/07/06 04:07:04;;;;;;;4.25;2.20;;;;;;;19.87;47.47;101269.41;4160443;28;20049;-62
2022/07/06 04:09:07;;;;;;;5.53;1.85;;;;;;;19.79;46.99;101267.75;4153931;28;20064;-62
2022/07/06 04:11:10;;;;;;;3.15;2.00;;;;;;;19.66;47.36;101270.47;4161292;28;20053;-62
2022/07/06 04:13:13;;;;;;;5.47;2.05;;;;;;;19.69;47.94;101273.06;4157768;28;20055;-62
2022/07/06 04:15:17;;;;;;;6.68;3.00;;;;;;;19.85;47.38;101280.84;4162702;28;20500;-63
2022/07/06 04:19:40;;;;;;;7.78;3.25;;;;;;;19.50;47.76;101282.94;4180068;28;20041;-63
2022/07/06 04:21:45;;;;;;;8.10;2.97;;;;;;;19.43;48.03;101272.47;4163738;28;20033;-62
2022/07/06 04:23:48;;;;;;;5.55;2.53;;;;;;;19.17;48.18;101285.00;4156570;28;20424;-62
2022/07/06 04:25:52;;;;;;;4.55;2.60;;;;;;;19.08;49.03;101284.19;4178921;28;20408;-62
2022/07/06 04:27:55;;;;;;;7.05;2.80;;;;;;;19.10;49.09;101287.66;4159620;28;20044;-72
2022/07/06 04:29:58;;;;;;;5.68;2.38;;;;;;;19.10;48.65;101291.19;4160988;28;20049;-73
2022/07/06 04:32:01;;;;;;;6.53;3.03;;;;;;;19.03;48.63;101289.50;4145467;28;20034;-72
2022/07/06 04:34:05;;;;;;;20.58;3.50;;;;;;;18.94;49.21;101294.81;4164389;28;20045;-72
2022/07/06 04:36:08;;;;;;;5.80;2.67;;;;;;;18.90;49.27;101295.75;4197669;28;20045;-72
2022/07/06 04:38:17;;;;;;;7.03;2.85;;;;;;;18.87;49.07;101291.38;4182126;28;20061;-72
2022/07/06 04:40:22;;;;;;;9.20;3.30;;;;;;;18.86;49.70;101294.88;4147557;28;20049;-71
2022/07/06 04:42:28;;;;;;;6.78;3.00;;;;;;;18.88;49.51;101297.50;4164410;28;20111;-70
2022/07/06 04:44:31;;;;;;;7.90;2.97;;;;;;;18.74;49.51;101294.94;4189225;28;20085;-70
2022/07/06 04:46:34;;;;;;;6.07;2.58;;;;;;;18.74;49.25;101292.31;4156134;28;20054;-72
2022/07/06 04:48:39;;;;;;;5.70;3.28;;;;;;;18.65;49.94;101299.38;4164515;28;20201;-70
2022/07/06 04:50:46;;;;;;;7.13;3.90;;;;;;;18.62;49.80;101306.41;4164483;28;20045;-70
2022/07/06 04:52:55;;;;;;;8.10;3.15;;;;;;;18.55;50.27;101304.69;4180711;28;20045;-70
2022/07/06 04:55:00;;;;;;;7.40;3.75;;;;;;;18.65;50.43;101307.25;4147850;28;20548;-71
2022/07/06 04:57:03;;;;;;;;;;;;;;;18.51;50.59;101306.47;4164915;28;20512;-71
2022/07/06 04:59:15;;;;;;;9.80;3.53;;;;;;;18.71;50.74;101308.13;4163570;28;19948;-71
2022/07/06 05:01:19;;;;;;;7.53;3.45;;;;;;;18.75;50.65;101307.19;4156821;28;20128;-71
2022/07/06 05:03:22;;;;;;;6.93;2.50;;;;;;;18.61;50.39;101305.53;4164037;28;20520;-71
2022/07/06 05:05:26;;;;;;;7.75;3.35;;;;;;;18.64;50.55;101308.13;4164205;28;20041;-71
2022/07/06 05:07:30;;;;;;;6.45;3.10;;;;;;;18.69;50.53;101313.41;4163201;28;20044;-70
2022/07/06 05:09:33;;;;;;;;;;;;;;;18.37;51.28;101298.66;4162082;28;20080;-72
2022/07/06 05:11:38;;;;;;;8.05;4.32;;;;;;;18.60;50.63;101309.06;4147584;28;20084;-68
2022/07/06 05:13:42;;;;;;;6.65;3.58;;;;;;;18.51;50.89;101313.50;4135486;28;20044;-72
2022/07/06 05:15:45;;;;;;;5.88;3.22;;;;;;;18.59;51.10;101311.72;4159888;28;20386;-71
2022/07/06 05:17:48;;;;;;;9.40;3.30;;;;;;;18.55;51.42;101310.84;4164078;28;20073;-70
2022/07/06 05:19:51;;;;;;;5.07;3.20;;;;;;;18.64;51.13;101316.03;4131503;28;20449;-72
2022/07/06 05:21:55;;;;;;;7.80;3.58;;;;;;;18.66;51.23;101313.41;4131089;28;20395;-71
2022/07/06 05:23:58;;;;;;;13.45;3.47;;;;;;;18.67;51.32;101315.16;4147613;28;20037;-71
2022/07/06 05:26:01;;;;;;;8.75;2.72;;;;;;;18.65;50.84;101314.31;4147707;28;20486;-71
2022/07/06 05:28:07;;;;;;;11.82;3.75;;;;;;;18.61;51.00;101318.69;4164570;28;20037;-70
2022/07/06 05:30:10;;;;;;;5.43;2.95;;;;;;;18.66;50.88;101310.75;4180406;28;20148;-71
2022/07/06 05:32:14;;;;;;;;;;;;;;;18.65;50.54;101325.69;4131493;28;20509;-70
2022/07/06 05:34:17;;;;;;;10.02;2.97;;;;;;;18.53;50.72;101332.78;4163747;28;19921;-71
2022/07/06 05:36:21;;;;;;;9.75;3.38;;;;;;;18.52;51.19;101325.78;4180401;28;20459;-71
2022/07/06 05:38:24;;;;;;;13.75;3.47;;;;;;;18.60;51.13;101329.25;4147322;28;20037;-71
2022/07/06 05:40:28;;;;;;;8.38;2.90;;;;;;;18.64;50.85;101325.72;4147482;28;20046;-70
2022/07/06 05:42:32;;;;;;;9.68;2.38;;;;;;;18.63;51.24;101329.22;4149876;28;20038;-72
2022/07/06 05:44:37;;;;;;;11.55;3.17;;;;;;;18.80;50.45;101337.91;4146994;28;20430;-72
2022/07/06 05:46:40;;;;;;;;;;;;;;;18.73;50.30;101340.59;4164141;28;20034;-71
2022/07/06 05:51:12;;;;;;;16.40;3.58;;;;;;;18.67;50.40;101333.59;4129025;28;20057;-71
2022/07/06 05:53:17;;;;;;;10.75;3.03;;;;;;;18.57;50.99;101332.75;4163315;28;20556;-71
2022/07/06 05:55:26;;;;;;;8.82;3.60;;;;;;;18.71;50.85;101340.59;4163653;28;20436;-71
2022/07/06 05:57:29;;;;;;;11.35;3.85;;;;;;;18.84;50.29;101329.09;4170636;28;20131;-71
2022/07/06 05:59:32;;;;;;;11.52;3.33;;;;;;;18.80;50.30;101337.91;4163387;28;20481;-71
2022/07/06 06:01:37;;;;;;;11.70;3.67;;;;;;;18.72;50.25;101331.81;4163199;28;20139;-70
2022/07/06 06:03:48;;;;;;;6.40;3.20;;;;;;;18.64;50.68;101333.63;4163388;28;20042;-70
2022/07/06 06:05:51;;;;;;;8.98;3.47;;;;;;;18.58;51.07;101331.03;4163264;28;20435;-71
2022/07/06 06:07:55;;;;;;;9.88;3.22;;;;;;;18.68;51.21;101338.00;4163509;28;20120;-70
2022/07/06 06:10:01;;;;;;;7.18;3.53;;;;;;;18.95;49.93;101334.34;4162115;28;20045;-71
2022/07/06 06:12:04;;;;;;;8.95;3.17;;;;;;;18.75;50.78;101333.53;4178878;28;20029;-71
2022/07/06 06:14:07;;;;;;;6.68;2.90;;;;;;;18.73;50.99;101335.31;4164470;28;20342;-71
2022/07/06 06:16:11;;;;;;;5.07;2.72;;;;;;;18.78;51.16;101334.41;4163306;28;20041;-72
2022/07/06 06:18:18;;;;;;;8.68;3.90;;;;;;;19.08;49.47;101336.91;4162455;28;20124;-71
2022/07/06 06:20:22;;;;;;;17.30;3.85;;;;;;;18.96;49.81;101338.72;4173374;28;20064;-71
2022/07/06 06:22:25;;;;;;;10.50;3.75;;;;;;;18.89;50.49;101333.50;4162779;28;20033;-71
2022/07/06 06:24:28;;;;;;;7.47;3.20;;;;;;;19.02;50.33;101338.66;4179480;28;20044;-71
2022/07/06 06:26:31;;;;;;;5.82;2.65;;;;;;;19.09;49.87;101334.25;4162321;28;20050;-71
2022/07/06 06:28:34;;;;;;;9.15;3.50;;;;;;;19.16;49.98;101338.59;4150887;28;20424;-71
2022/07/06 06:30:38;;;;;;;9.60;4.15;;;;;;;19.32;50.09;101341.13;4175237;28;20052;-72
2022/07/06 06:32:41;;;;;;;9.20;4.25;;;;;;;19.35;49.34;101347.22;4177468;28;20083;-71
2022/07/06 06:34:45;;;;;;;8.32;3.83;;;;;;;19.21;49.67;101349.09;4180484;28;20061;-71
2022/07/06 06:36:48;;;;;;;9.38;5.03;;;;;;;19.25;48.94;101344.69;4178889;28;20037;-71
2022/07/06 06:38:51;;;;;;;14.75;4.43;;;;;;;19.18;49.29;101347.34;4180570;28;20044;-72
2022/07/06 06:40:58;;;;;;;6.35;3.40;;;;;;;19.00;49.78;101339.59;4163070;28;20069;-73
2022/07/06 06:43:01;;;;;;;8.50;3.75;;;;;;;19.09;49.39;101349.19;4172617;28;20048;-72
2022/07/06 06:45:07;;;;;;;11.38;4.03;;;;;;;19.18;50.17;101347.34;4161444;28;20038;-72
2022/07/06 06:47:10;;;;;;;7.63;3.92;;;;;;;19.25;48.97;101345.56;4180565;28;20047;-71
2022/07/06 06:49:13;;;;;;;9.85;4.00;;;;;;;19.28;49.19;101356.06;4162734;28;20136;-73
2022/07/06 06:51:17;;;;;;;5.03;2.65;;;;;;;19.07;49.66;101351.84;4162841;28;20124;-72
2022/07/06 06:53:20;;;;;;;9.50;3.90;;;;;;;19.24;48.74;101358.75;4162487;28;20517;-72
2022/07/06 06:55:24;;;;;;;9.65;3.50;;;;;;;19.30;48.67;101349.03;4179149;28;20599;-72
2022/07/06 06:57:28;;;;;;;9.07;3.63;;;;;;;19.19;49.31;101362.28;4153598;28;20049;-72
2022/07/06 06:59:31;;;;;;;9.15;3.90;;;;;;;19.24;48.78;101356.97;4153690;28;20328;-71
2022/07/06 07:01:34;;;;;;;8.52;2.60;;;;;;;19.13;49.60;101361.47;4180125;28;20504;-72
2022/07/06 07:03:37;;;;;;;7.22;2.92;;;;;;;19.30;49.83;101364.88;4180379;28;20520;-73
2022/07/06 07:05:40;;;;;;;6.85;3.28;;;;;;;19.54;48.57;101357.63;4162723;28;20512;-71
2022/07/06 07:07:44;;;;;;;7.70;3.40;;;;;;;19.54;48.64;101360.28;4180253;28;20500;-72
2022/07/06 07:09:47;;;;;;;8.30;3.20;;;;;;;19.62;48.10;101353.16;4180319;28;20090;-72
2022/07/06 07:11:50;;;;;;;4.50;2.30;;;;;;;19.44;48.74;101350.69;4171378;28;20133;-72
2022/07/06 07:13:53;;;;;;;6.55;2.95;;;;;;;19.34;48.83;101357.78;4170777;28;20037;-72
2022/07/06 07:15:56;;;;;;;6.10;3.00;;;;;;;19.43;48.71;101360.34;4177348;28;20033;-71
2022/07/06 07:17:59;;;;;;;13.32;3.30;;;;;;;19.61;48.38;101359.34;4180156;28;20045;-72
2022/07/06 07:20:02;;;;;;;7.00;3.20;;;;;;;19.73;48.48;101362.72;4180189;28;20135;-71
2022/07/06 07:22:05;;;;;;;8.30;2.97;;;;;;;19.84;47.57;101356.53;4179910;28;20135;-72
2022/07/06 07:24:09;;;;;;;7.38;3.10;;;;;;;19.92;47.98;101352.91;4180302;28;20300;-71
2022/07/06 07:26:12;;;;;;;;;;;;;;;19.93;47.29;101352.03;4180560;28;20040;-71
2022/07/06 07:28:15;;;;;;;9.05;3.58;;;;;;;19.86;47.61;101352.09;4170906;28;19992;-71
2022/07/06 07:30:18;;;;;;;7.07;2.70;;;;;;;19.78;47.82;101353.91;4172282;28;20065;-71
2022/07/06 07:32:21;;;;;;;7.57;2.83;;;;;;;19.77;47.57;101353.91;4179819;28;20040;-72
2022/07/06 07:34:24;;;;;;;6.45;2.72;;;;;;;19.75;47.92;101353.06;4179758;28;20083;-71
2022/07/06 07:36:27;;;;;;;8.57;3.25;;;;;;;19.99;47.64;101358.13;4178744;28;20045;-71
2022/07/06 07:38:30;;;;;;;7.97;2.00;;;;;;;20.10;47.69;101368.56;4162342;28;20416;-71
2022/07/06 07:40:35;;;;;;;7.40;3.10;;;;;;;20.22;46.94;101375.47;4180217;28;20160;-70
2022/07/06 07:42:40;;;;;;;8.43;2.67;;;;;;;20.22;45.96;101368.44;4178681;28;20036;-71
2022/07/06 07:44:43;;;;;;;9.88;3.22;;;;;;;20.17;46.04;101370.25;4178615;28;20091;-72
2022/07/06 07:46:46;;;;;;;12.00;3.40;;;;;;;20.19;45.72;101360.56;4180076;28;20037;-72
2022/07/06 07:48:49;;;;;;;8.75;2.78;;;;;;;20.14;46.42;101372.91;4162301;28;20049;-71
2022/07/06 07:50:53;;;;;;;8.95;3.78;;;;;;;20.19;45.39;101378.13;4165424;28;20045;-71
2022/07/06 07:52:56;;;;;;;5.43;3.08;;;;;;;20.23;45.23;101372.81;4182775;28;20150;-72
2022/07/06 07:54:59;;;;;;;7.18;3.22;;;;;;;20.09;45.88;101364.16;4165433;28;20619;-71
2022/07/06 07:57:23;;;;;;;5.97;3.67;;;;;;;20.11;45.63;101362.38;4180517;28;20554;-71
2022/07/06 07:59:27;;;;;;;10.82;4.13;;;;;;;20.16;44.88;101357.91;4182883;28;20040;-70
2022/07/06 08:01:29;;;;;;;6.90;3.00;;;;;;;20.15;45.60;101350.03;4165175;28;20045;-72
2022/07/06 08:03:33;;;;;;;7.55;3.28;;;;;;;20.08;45.35;101353.63;4164939;28;20052;-72
2022/07/06 08:05:35;;;;;;;7.55;2.78;;;;;;;19.96;45.86;101349.34;4182853;28;20033;-71
2022/07/06 08:07:38;;;;;;;5.35;2.80;;;;;;;20.02;46.24;101349.31;4182846;28;20037;-71
2022/07/06 08:09:41;;;;;;;4.55;3.33;;;;;;;20.18;45.41;101358.78;4182835;28;20037;-72
2022/07/06 08:11:44;;;;;;;10.45;3.95;;;;;;;20.29;44.92;101365.72;4173258;28;20033;-71
2022/07/06 08:13:49;;;;;;;6.85;3.28;;;;;;;20.32;44.73;101357.75;4182674;28;20037;-72
2022/07/06 08:15:51;;;;;;;7.03;3.40;;;;;;;20.46;44.22;101350.53;4182710;28;20044;-71
2022/07/06 08:17:54;;;;;;;6.47;3.80;;;;;;;20.36;44.29;101351.56;4182685;28;20047;-72
2022/07/06 08:19:58;;;;;;;8.38;3.05;;;;;;;20.31;44.23;101356.00;4176055;28;20045;-72
2022/07/06 08:22:03;;;;;;;8.73;3.20;;;;;;;20.14;45.14;101348.28;4180440;28;20083;-70
2022/07/06 08:24:06;;;;;;;9.32;3.00;;;;;;;20.31;44.71;101340.16;4178337;28;20120;-71
2022/07/06 08:26:10;;;;;;;7.85;2.90;;;;;;;20.41;44.41;101347.06;4181642;28;20037;-72
2022/07/06 08:28:19;;;;;;;7.80;3.03;;;;;;;20.39;43.99;101348.88;4166153;28;20061;-71
2022/07/06 08:30:23;;;;;;;8.60;3.15;;;;;;;20.54;43.50;101351.28;4166079;28;20064;-70
2022/07/06 08:32:26;;;;;;;6.78;3.13;;;;;;;20.57;44.35;101353.94;4169938;28;20489;-72
2022/07/06 08:34:49;;;;;;;6.15;2.58;;;;;;;20.46;44.35;101349.66;4181157;28;20063;-72
2022/07/06 08:36:52;;;;;;;10.95;3.15;;;;;;;20.74;43.57;101358.13;4182404;28;20435;-72
2022/07/06 08:38:55;;;;;;;5.18;2.70;;;;;;;20.63;43.37;101355.59;4181599;28;20401;-72
2022/07/06 08:40:59;;;;;;;7.03;2.97;;;;;;;20.68;43.07;101358.22;4173999;28;20116;-72
2022/07/06 08:43:02;;;;;;;6.00;2.55;;;;;;;20.77;43.33;101359.88;4181825;28;20036;-72
2022/07/06 08:45:07;;;;;;;8.90;3.20;;;;;;;20.98;42.77;101363.97;4182705;28;20614;-72
2022/07/06 08:47:13;;;;;;;9.40;3.30;;;;;;;20.84;42.83;101357.13;4181043;28;20048;-73
2022/07/06 08:49:20;;;;;;;9.00;2.95;;;;;;;21.03;42.45;101354.22;4164661;28;20052;-72
2022/07/06 08:51:25;;;;;;;6.25;2.30;;;;;;;20.89;42.91;101371.13;4148267;28;20053;-73
2022/07/06 08:53:32;;;;;;;7.57;2.10;;;;;;;20.97;43.13;101365.75;4160913;28;20049;-73
2022/07/06 08:55:35;;;;;;;5.75;2.22;;;;;;;21.18;42.53;101356.59;4176682;28;20037;-73
2022/07/06 08:57:39;;;;;;;6.20;2.17;;;;;;;21.21;41.72;101367.13;4182197;28;20065;-72
2022/07/06 08:59:42;;;;;;;9.52;2.92;;;;;;;21.36;41.71;101368.69;4181691;28;20037;-73
2022/07/06 09:01:45;;;;;;;5.20;2.30;;;;;;;21.22;41.76;101368.88;4181833;28;20120;-72
2022/07/06 09:03:51;;;;;;;4.73;2.30;;;;;;;21.43;41.40;101370.31;4182170;28;20492;-72
2022/07/06 09:06:00;;;;;;;5.53;2.88;;;;;;;21.34;41.55;101374.88;4180913;28;20311;-72
2022/07/06 09:08:03;;;;;;;7.55;3.30;;;;;;;21.50;41.48;101364.94;4179355;28;20087;-73
2022/07/06 09:10:09;;;;;;;4.35;2.53;;;;;;;21.39;41.39;101359.81;4180909;28;20047;-72
2022/07/06 09:12:13;;;;;;;7.32;3.03;;;;;;;21.48;40.38;101364.97;4181803;28;20124;-72
2022/07/06 09:14:18;;;;;;;7.65;2.72;;;;;;;21.46;40.58;101372.03;4164239;28;20049;-72
2022/07/06 09:16:28;;;;;;;3.42;1.90;;;;;;;21.25;41.45;101352.09;4181963;28;20573;-71
2022/07/06 09:18:46;;;;;;;6.15;2.42;;;;;;;21.35;40.80;101366.94;4164340;28;20037;-73
2022/07/06 09:20:50;;;;;;;8.07;2.60;;;;;;;21.52;40.58;101364.00;4180893;28;20400;-72
2022/07/06 09:22:59;;;;;;;6.43;2.58;;;;;;;21.57;40.01;101363.97;4180626;28;20040;-73
2022/07/06 09:25:04;;;;;;;7.00;2.53;;;;;;;21.63;39.75;101368.28;4155949;28;20049;-72
2022/07/06 09:27:07;;;;;;;7.35;1.95;;;;;;;21.56;40.15;101363.06;4165566;28;20072;-72
2022/07/06 09:29:11;;;;;;;6.45;2.22;;;;;;;21.61;40.46;101358.59;4147992;28;20090;-73
2022/07/06 09:31:14;;;;;;;6.70;2.00;;;;;;;21.56;40.15;101363.06;4148152;28;20138;-73
2022/07/06 09:33:19;;;;;;;8.07;2.03;;;;;;;21.69;40.19;101362.88;4173514;28;20551;-73
2022/07/06 09:35:24;;;;;;;5.13;2.10;;;;;;;21.88;39.60;101361.63;4181754;28;20033;-72
2022/07/06 09:37:30;;;;;;;8.57;2.28;;;;;;;21.88;39.24;101368.72;4177780;28;20041;-72
2022/07/06 09:39:33;;;;;;;5.80;2.22;;;;;;;22.06;38.26;101359.53;4158145;28;20099;-72
2022/07/06 09:41:36;;;;;;;4.35;2.20;;;;;;;21.87;38.70;101362.53;4181559;28;20068;-72
2022/07/06 09:43:40;;;;;;;3.08;1.38;;;;;;;21.80;39.38;101366.22;4181437;28;20049;-73